sensor_id;sensor_type;location;lat;lon;timestamp;P1;durP1;ratioP1;P2;durP2;ratioP2
28170;SDS011;15458;53.346;-1.688;2024-01-06T00:00:29;5.28;;;2.63;;
28170;SDS011;15458;53.346;-1.688;2024-01-06T00:02:55;3.55;;;2.63;;
28170;SDS011;15458;53.346;-1.688;2024-01-06T00:05:21;5.45;;;2.97;;
28170;SDS011;15458;53.346;-1.688;2024-01-06T00:07:47;3.38;;;2.30;;
28170;SDS011;15458;53.346;-1.688;2024-01-06T00:10:14;3.33;;;2.47;;
28170;SDS011;15458;53.346;-1.688;2024-01-06T00:12:43;3.42;;;2.20;;
28170;SDS011;15458;53.346;-1.688;2024-01-06T00:15:08;3.70;;;3.00;;
28170;SDS011;15458;53.346;-1.688;2024-01-06T00:17:35;4.07;;;2.00;;
28170;SDS011;15458;53.346;-1.688;2024-01-06T00:20:01;4.13;;;2.35;;
28170;SDS011;15458;53.346;-1.688;2024-01-06T00:22:27;5.07;;;2.50;;
28170;SDS011;15458;53.346;-1.688;2024-01-06T00:24:54;3.90;;;2.08;;
28170;SDS011;15458;53.346;-1.688;2024-01-06T00:27:19;4.93;;;2.10;;
28170;SDS011;15458;53.346;-1.688;2024-01-06T00:29:45;3.80;;;2.50;;
28170;SDS011;15458;53.346;-1.688;2024-01-06T00:32:12;3.10;;;2.28;;
28170;SDS011;15458;53.346;-1.688;2024-01-06T00:34:38;4.47;;;2.92;;
28170;SDS011;15458;53.346;-1.688;2024-01-06T00:37:03;3.67;;;2.38;;
28170;SDS011;15458;53.346;-1.688;2024-01-06T00:39:29;4.43;;;2.20;;
28170;SDS011;15458;53.346;-1.688;2024-01-06T00:41:56;3.28;;;2.40;;
28170;SDS011;15458;53.346;-1.688;2024-01-06T00:44:23;3.08;;;2.05;;
28170;SDS011;15458;53.346;-1.688;2024-01-06T00:46:51;5.95;;;2.28;;
28170;SDS011;15458;53.346;-1.688;2024-01-06T00:51:47;2.53;;;1.80;;
28170;SDS011;15458;53.346;-1.688;2024-01-06T00:54:13;3.22;;;1.90;;
28170;SDS011;15458;53.346;-1.688;2024-01-06T00:56:39;3.45;;;1.95;;
28170;SDS011;15458;53.346;-1.688;2024-01-06T00:59:08;3.50;;;2.05;;
28170;SDS011;15458;53.346;-1.688;2024-01-06T01:01:34;2.85;;;1.88;;
28170;SDS011;15458;53.346;-1.688;2024-01-06T01:04:00;3.42;;;1.90;;
28170;SDS011;15458;53.346;-1.688;2024-01-06T01:06:26;4.90;;;2.30;;
28170;SDS011;15458;53.346;-1.688;2024-01-06T01:08:52;9.63;;;1.98;;
28170;SDS011;15458;53.346;-1.688;2024-01-06T01:11:18;5.53;;;2.40;;
28170;SDS011;15458;53.346;-1.688;2024-01-06T01:13:44;5.03;;;2.42;;
28170;SDS011;15458;53.346;-1.688;2024-01-06T01:16:10;3.25;;;1.88;;
28170;SDS011;15458;53.346;-1.688;2024-01-06T01:18:37;2.58;;;1.65;;
28170;SDS011;15458;53.346;-1.688;2024-01-06T01:21:03;2.70;;;1.77;;
28170;SDS011;15458;53.346;-1.688;2024-01-06T01:23:29;2.92;;;1.60;;
28170;SDS011;15458;53.346;-1.688;2024-01-06T01:25:55;3.58;;;1.30;;
28170;SDS011;15458;53.346;-1.688;2024-01-06T01:28:22;1.77;;;1.35;;
28170;SDS011;15458;53.346;-1.688;2024-01-06T01:30:47;2.53;;;1.50;;
28170;SDS011;15458;53.346;-1.688;2024-01-06T01:33:13;2.28;;;1.45;;
28170;SDS011;15458;53.346;-1.688;2024-01-06T01:35:39;2.90;;;1.83;;
28170;SDS011;15458;53.346;-1.688;2024-01-06T01:38:06;2.72;;;1.48;;
28170;SDS011;15458;53.346;-1.688;2024-01-06T01:40:35;2.58;;;1.30;;
28170;SDS011;15458;53.346;-1.688;2024-01-06T01:43:01;2.53;;;1.40;;
28170;SDS011;15458;53.346;-1.688;2024-01-06T01:45:28;3.28;;;1.48;;
28170;SDS011;15458;53.346;-1.688;2024-01-06T01:47:54;2.58;;;1.67;;
28170;SDS011;15458;53.346;-1.688;2024-01-06T01:50:19;2.13;;;1.35;;
28170;SDS011;15458;53.346;-1.688;2024-01-06T01:52:47;4.47;;;1.55;;
28170;SDS011;15458;53.346;-1.688;2024-01-06T01:55:13;5.28;;;1.42;;
28170;SDS011;15458;53.346;-1.688;2024-01-06T01:57:39;2.15;;;1.38;;
28170;SDS011;15458;53.346;-1.688;2024-01-06T02:00:05;2.47;;;1.70;;
28170;SDS011;15458;53.346;-1.688;2024-01-06T02:02:32;4.22;;;1.38;;
28170;SDS011;15458;53.346;-1.688;2024-01-06T02:05:00;1.30;;;1.20;;
28170;SDS011;15458;53.346;-1.688;2024-01-06T02:07:26;11.13;;;1.45;;
28170;SDS011;15458;53.346;-1.688;2024-01-06T02:09:52;2.10;;;1.40;;
28170;SDS011;15458;53.346;-1.688;2024-01-06T02:12:17;2.13;;;1.50;;
28170;SDS011;15458;53.346;-1.688;2024-01-06T02:14:45;2.65;;;1.33;;
28170;SDS011;15458;53.346;-1.688;2024-01-06T02:17:12;3.00;;;1.30;;
28170;SDS011;15458;53.346;-1.688;2024-01-06T02:19:40;2.85;;;1.30;;
28170;SDS011;15458;53.346;-1.688;2024-01-06T02:22:06;3.50;;;1.40;;
28170;SDS011;15458;53.346;-1.688;2024-01-06T02:24:31;5.30;;;1.27;;
28170;SDS011;15458;53.346;-1.688;2024-01-06T02:26:57;5.93;;;1.73;;
28170;SDS011;15458;53.346;-1.688;2024-01-06T02:29:23;2.55;;;1.67;;
28170;SDS011;15458;53.346;-1.688;2024-01-06T02:31:50;1.88;;;1.20;;
28170;SDS011;15458;53.346;-1.688;2024-01-06T02:34:23;1.88;;;1.33;;
28170;SDS011;15458;53.346;-1.688;2024-01-06T02:36:49;2.38;;;1.27;;
28170;SDS011;15458;53.346;-1.688;2024-01-06T02:39:14;1.70;;;1.20;;
28170;SDS011;15458;53.346;-1.688;2024-01-06T02:41:40;2.28;;;1.15;;
28170;SDS011;15458;53.346;-1.688;2024-01-06T02:44:06;3.65;;;1.10;;
28170;SDS011;15458;53.346;-1.688;2024-01-06T02:46:34;1.10;;;1.00;;
28170;SDS011;15458;53.346;-1.688;2024-01-06T02:49:00;1.45;;;1.10;;
28170;SDS011;15458;53.346;-1.688;2024-01-06T02:51:26;0.90;;;0.73;;
28170;SDS011;15458;53.346;-1.688;2024-01-06T02:53:52;3.55;;;1.10;;
28170;SDS011;15458;53.346;-1.688;2024-01-06T02:56:19;2.08;;;0.70;;
28170;SDS011;15458;53.346;-1.688;2024-01-06T02:58:48;2.10;;;0.70;;
28170;SDS011;15458;53.346;-1.688;2024-01-06T03:01:15;1.65;;;0.60;;
28170;SDS011;15458;53.346;-1.688;2024-01-06T03:03:40;1.00;;;0.47;;
28170;SDS011;15458;53.346;-1.688;2024-01-06T03:06:06;0.80;;;0.60;;
28170;SDS011;15458;53.346;-1.688;2024-01-06T03:08:32;1.17;;;0.52;;
28170;SDS011;15458;53.346;-1.688;2024-01-06T03:10:59;1.13;;;0.65;;
28170;SDS011;15458;53.346;-1.688;2024-01-06T03:13:26;1.27;;;0.60;;
28170;SDS011;15458;53.346;-1.688;2024-01-06T03:15:53;1.63;;;0.57;;
28170;SDS011;15458;53.346;-1.688;2024-01-06T03:18:19;2.42;;;0.68;;
28170;SDS011;15458;53.346;-1.688;2024-01-06T03:20:45;0.60;;;0.60;;
28170;SDS011;15458;53.346;-1.688;2024-01-06T03:23:13;0.63;;;0.40;;
28170;SDS011;15458;53.346;-1.688;2024-01-06T03:25:39;6.05;;;0.90;;
28170;SDS011;15458;53.346;-1.688;2024-01-06T03:28:05;1.48;;;0.63;;
28170;SDS011;15458;53.346;-1.688;2024-01-06T03:30:31;0.80;;;0.50;;
28170;SDS011;15458;53.346;-1.688;2024-01-06T03:32:57;1.42;;;0.75;;
28170;SDS011;15458;53.346;-1.688;2024-01-06T03:35:23;1.73;;;0.70;;
28170;SDS011;15458;53.346;-1.688;2024-01-06T03:37:48;1.42;;;0.70;;
28170;SDS011;15458;53.346;-1.688;2024-01-06T03:40:14;1.58;;;0.50;;
28170;SDS011;15458;53.346;-1.688;2024-01-06T03:42:45;1.60;;;0.47;;
28170;SDS011;15458;53.346;-1.688;2024-01-06T03:45:10;1.17;;;0.80;;
28170;SDS011;15458;53.346;-1.688;2024-01-06T03:47:36;3.00;;;0.70;;
28170;SDS011;15458;53.346;-1.688;2024-01-06T03:50:02;2.90;;;0.75;;
28170;SDS011;15458;53.346;-1.688;2024-01-06T03:52:28;2.08;;;0.88;;
28170;SDS011;15458;53.346;-1.688;2024-01-06T03:54:54;1.33;;;0.88;;
28170;SDS011;15458;53.346;-1.688;2024-01-06T03:57:19;0.95;;;0.47;;
28170;SDS011;15458;53.346;-1.688;2024-01-06T03:59:45;1.15;;;0.73;;
28170;SDS011;15458;53.346;-1.688;2024-01-06T04:02:11;1.05;;;0.70;;
28170;SDS011;15458;53.346;-1.688;2024-01-06T04:04:36;1.50;;;0.70;;
28170;SDS011;15458;53.346;-1.688;2024-01-06T04:07:02;3.78;;;0.80;;
28170;SDS011;15458;53.346;-1.688;2024-01-06T04:09:28;1.42;;;0.70;;
28170;SDS011;15458;53.346;-1.688;2024-01-06T04:11:53;1.27;;;0.60;;
28170;SDS011;15458;53.346;-1.688;2024-01-06T04:14:19;0.98;;;0.70;;
28170;SDS011;15458;53.346;-1.688;2024-01-06T04:16:45;3.42;;;0.70;;
28170;SDS011;15458;53.346;-1.688;2024-01-06T04:19:11;5.32;;;0.80;;
28170;SDS011;15458;53.346;-1.688;2024-01-06T04:21:37;4.30;;;1.40;;
28170;SDS011;15458;53.346;-1.688;2024-01-06T04:24:03;1.63;;;0.70;;
28170;SDS011;15458;53.346;-1.688;2024-01-06T04:26:29;0.88;;;0.47;;
28170;SDS011;15458;53.346;-1.688;2024-01-06T04:28:55;2.20;;;0.65;;
28170;SDS011;15458;53.346;-1.688;2024-01-06T04:31:20;1.77;;;0.50;;
28170;SDS011;15458;53.346;-1.688;2024-01-06T04:33:47;2.10;;;0.65;;
28170;SDS011;15458;53.346;-1.688;2024-01-06T04:36:13;3.10;;;0.80;;
28170;SDS011;15458;53.346;-1.688;2024-01-06T04:38:39;1.80;;;0.70;;
28170;SDS011;15458;53.346;-1.688;2024-01-06T04:41:06;0.75;;;0.60;;
28170;SDS011;15458;53.346;-1.688;2024-01-06T04:43:31;4.35;;;1.85;;
28170;SDS011;15458;53.346;-1.688;2024-01-06T04:45:59;2.53;;;0.90;;
28170;SDS011;15458;53.346;-1.688;2024-01-06T04:48:25;1.58;;;0.90;;
28170;SDS011;15458;53.346;-1.688;2024-01-06T04:50:51;3.40;;;1.17;;
28170;SDS011;15458;53.346;-1.688;2024-01-06T04:53:16;5.53;;;2.38;;
28170;SDS011;15458;53.346;-1.688;2024-01-06T04:55:42;4.03;;;1.38;;
28170;SDS011;15458;53.346;-1.688;2024-01-06T04:58:08;2.13;;;1.10;;
28170;SDS011;15458;53.346;-1.688;2024-01-06T05:00:33;6.20;;;1.20;;
28170;SDS011;15458;53.346;-1.688;2024-01-06T05:03:01;3.85;;;1.00;;
28170;SDS011;15458;53.346;-1.688;2024-01-06T05:05:27;2.90;;;1.17;;
28170;SDS011;15458;53.346;-1.688;2024-01-06T05:07:52;4.60;;;2.50;;
28170;SDS011;15458;53.346;-1.688;2024-01-06T05:10:18;4.82;;;1.48;;
28170;SDS011;15458;53.346;-1.688;2024-01-06T05:12:44;1.90;;;1.38;;
28170;SDS011;15458;53.346;-1.688;2024-01-06T05:15:09;2.58;;;1.20;;
28170;SDS011;15458;53.346;-1.688;2024-01-06T05:17:35;5.60;;;1.10;;
28170;SDS011;15458;53.346;-1.688;2024-01-06T05:20:01;3.75;;;1.27;;
28170;SDS011;15458;53.346;-1.688;2024-01-06T05:22:26;1.33;;;0.70;;
28170;SDS011;15458;53.346;-1.688;2024-01-06T05:24:52;3.47;;;1.00;;
28170;SDS011;15458;53.346;-1.688;2024-01-06T05:27:19;2.33;;;0.98;;
28170;SDS011;15458;53.346;-1.688;2024-01-06T05:29:45;2.25;;;1.17;;
28170;SDS011;15458;53.346;-1.688;2024-01-06T05:32:10;2.15;;;1.00;;
28170;SDS011;15458;53.346;-1.688;2024-01-06T05:34:36;6.80;;;1.00;;
28170;SDS011;15458;53.346;-1.688;2024-01-06T05:37:02;2.00;;;0.98;;
28170;SDS011;15458;53.346;-1.688;2024-01-06T05:39:27;6.07;;;1.08;;
28170;SDS011;15458;53.346;-1.688;2024-01-06T05:41:53;5.50;;;1.70;;
28170;SDS011;15458;53.346;-1.688;2024-01-06T05:44:19;2.88;;;0.95;;
28170;SDS011;15458;53.346;-1.688;2024-01-06T05:46:44;2.47;;;1.20;;
28170;SDS011;15458;53.346;-1.688;2024-01-06T05:49:13;3.85;;;1.17;;
28170;SDS011;15458;53.346;-1.688;2024-01-06T05:51:43;2.88;;;1.00;;
28170;SDS011;15458;53.346;-1.688;2024-01-06T05:56:37;3.03;;;1.00;;
28170;SDS011;15458;53.346;-1.688;2024-01-06T05:59:03;4.22;;;1.40;;
28170;SDS011;15458;53.346;-1.688;2024-01-06T06:01:28;6.03;;;1.20;;
28170;SDS011;15458;53.346;-1.688;2024-01-06T06:03:54;5.25;;;2.47;;
28170;SDS011;15458;53.346;-1.688;2024-01-06T06:06:20;1.63;;;1.10;;
28170;SDS011;15458;53.346;-1.688;2024-01-06T06:08:46;2.75;;;1.17;;
28170;SDS011;15458;53.346;-1.688;2024-01-06T06:11:13;2.05;;;1.33;;
28170;SDS011;15458;53.346;-1.688;2024-01-06T06:13:40;4.07;;;1.20;;
28170;SDS011;15458;53.346;-1.688;2024-01-06T06:16:06;4.22;;;1.30;;
28170;SDS011;15458;53.346;-1.688;2024-01-06T06:18:34;3.63;;;1.23;;
28170;SDS011;15458;53.346;-1.688;2024-01-06T06:21:00;7.13;;;3.53;;
28170;SDS011;15458;53.346;-1.688;2024-01-06T06:23:30;4.75;;;1.23;;
28170;SDS011;15458;53.346;-1.688;2024-01-06T06:25:56;5.90;;;1.42;;
28170;SDS011;15458;53.346;-1.688;2024-01-06T06:28:21;4.38;;;1.10;;
28170;SDS011;15458;53.346;-1.688;2024-01-06T06:30:47;3.22;;;1.20;;
28170;SDS011;15458;53.346;-1.688;2024-01-06T06:33:14;4.55;;;1.65;;
28170;SDS011;15458;53.346;-1.688;2024-01-06T06:35:40;4.72;;;1.20;;
28170;SDS011;15458;53.346;-1.688;2024-01-06T06:38:06;4.30;;;1.25;;
28170;SDS011;15458;53.346;-1.688;2024-01-06T06:40:32;5.32;;;1.35;;
28170;SDS011;15458;53.346;-1.688;2024-01-06T06:42:59;3.83;;;0.90;;
28170;SDS011;15458;53.346;-1.688;2024-01-06T06:45:25;3.67;;;1.00;;
28170;SDS011;15458;53.346;-1.688;2024-01-06T06:47:51;1.65;;;0.98;;
28170;SDS011;15458;53.346;-1.688;2024-01-06T06:50:19;4.13;;;1.38;;
28170;SDS011;15458;53.346;-1.688;2024-01-06T06:52:48;4.18;;;1.23;;
28170;SDS011;15458;53.346;-1.688;2024-01-06T06:55:14;3.35;;;1.20;;
28170;SDS011;15458;53.346;-1.688;2024-01-06T06:57:40;3.13;;;1.20;;
28170;SDS011;15458;53.346;-1.688;2024-01-06T07:00:07;5.35;;;1.60;;
28170;SDS011;15458;53.346;-1.688;2024-01-06T07:02:33;2.60;;;1.00;;
28170;SDS011;15458;53.346;-1.688;2024-01-06T07:04:59;7.55;;;1.52;;
28170;SDS011;15458;53.346;-1.688;2024-01-06T07:07:25;4.28;;;0.90;;
28170;SDS011;15458;53.346;-1.688;2024-01-06T07:09:50;3.55;;;1.40;;
28170;SDS011;15458;53.346;-1.688;2024-01-06T07:12:16;2.60;;;1.17;;
28170;SDS011;15458;53.346;-1.688;2024-01-06T07:14:42;3.92;;;1.73;;
28170;SDS011;15458;53.346;-1.688;2024-01-06T07:17:08;4.40;;;1.42;;
28170;SDS011;15458;53.346;-1.688;2024-01-06T07:19:35;3.35;;;1.40;;
28170;SDS011;15458;53.346;-1.688;2024-01-06T07:22:05;3.65;;;1.73;;
28170;SDS011;15458;53.346;-1.688;2024-01-06T07:24:33;4.32;;;1.80;;
28170;SDS011;15458;53.346;-1.688;2024-01-06T07:27:03;5.35;;;1.70;;
28170;SDS011;15458;53.346;-1.688;2024-01-06T07:29:29;4.07;;;1.52;;
28170;SDS011;15458;53.346;-1.688;2024-01-06T07:31:55;6.85;;;2.35;;
28170;SDS011;15458;53.346;-1.688;2024-01-06T07:34:21;2.40;;;1.10;;
28170;SDS011;15458;53.346;-1.688;2024-01-06T07:36:47;4.25;;;2.50;;
28170;SDS011;15458;53.346;-1.688;2024-01-06T07:39:12;3.53;;;1.58;;
28170;SDS011;15458;53.346;-1.688;2024-01-06T07:41:38;7.68;;;2.10;;
28170;SDS011;15458;53.346;-1.688;2024-01-06T07:44:04;5.30;;;1.75;;
28170;SDS011;15458;53.346;-1.688;2024-01-06T07:46:30;3.42;;;1.40;;
28170;SDS011;15458;53.346;-1.688;2024-01-06T07:48:57;2.58;;;1.60;;
28170;SDS011;15458;53.346;-1.688;2024-01-06T07:51:22;3.00;;;1.17;;
28170;SDS011;15458;53.346;-1.688;2024-01-06T07:53:52;4.53;;;1.50;;
28170;SDS011;15458;53.346;-1.688;2024-01-06T07:56:19;4.40;;;1.30;;
28170;SDS011;15458;53.346;-1.688;2024-01-06T07:58:45;3.40;;;1.33;;
28170;SDS011;15458;53.346;-1.688;2024-01-06T08:01:12;5.50;;;1.77;;
28170;SDS011;15458;53.346;-1.688;2024-01-06T08:03:39;3.30;;;1.20;;
28170;SDS011;15458;53.346;-1.688;2024-01-06T08:06:05;3.53;;;1.42;;
28170;SDS011;15458;53.346;-1.688;2024-01-06T08:08:31;4.70;;;1.90;;
28170;SDS011;15458;53.346;-1.688;2024-01-06T08:10:56;5.05;;;1.20;;
28170;SDS011;15458;53.346;-1.688;2024-01-06T08:13:22;6.43;;;1.30;;
28170;SDS011;15458;53.346;-1.688;2024-01-06T08:15:48;4.38;;;1.42;;
28170;SDS011;15458;53.346;-1.688;2024-01-06T08:18:13;3.30;;;1.20;;
28170;SDS011;15458;53.346;-1.688;2024-01-06T08:20:39;2.10;;;1.20;;
28170;SDS011;15458;53.346;-1.688;2024-01-06T08:23:05;4.47;;;0.90;;
28170;SDS011;15458;53.346;-1.688;2024-01-06T08:25:31;2.75;;;1.17;;
28170;SDS011;15458;53.346;-1.688;2024-01-06T08:27:56;4.70;;;1.90;;
28170;SDS011;15458;53.346;-1.688;2024-01-06T08:30:22;3.67;;;1.20;;
28170;SDS011;15458;53.346;-1.688;2024-01-06T08:32:48;3.80;;;1.42;;
28170;SDS011;15458;53.346;-1.688;2024-01-06T08:35:20;2.58;;;1.45;;
28170;SDS011;15458;53.346;-1.688;2024-01-06T08:37:45;5.55;;;1.95;;
28170;SDS011;15458;53.346;-1.688;2024-01-06T08:40:12;10.68;;;2.45;;
28170;SDS011;15458;53.346;-1.688;2024-01-06T08:42:38;5.03;;;1.75;;
28170;SDS011;15458;53.346;-1.688;2024-01-06T08:45:07;8.85;;;2.47;;
28170;SDS011;15458;53.346;-1.688;2024-01-06T08:47:33;9.50;;;2.92;;
28170;SDS011;15458;53.346;-1.688;2024-01-06T08:49:58;2.97;;;1.60;;
28170;SDS011;15458;53.346;-1.688;2024-01-06T08:52:25;8.25;;;3.17;;
28170;SDS011;15458;53.346;-1.688;2024-01-06T08:54:51;9.93;;;2.65;;
28170;SDS011;15458;53.346;-1.688;2024-01-06T08:57:17;7.82;;;2.35;;
28170;SDS011;15458;53.346;-1.688;2024-01-06T08:59:43;5.53;;;2.20;;
28170;SDS011;15458;53.346;-1.688;2024-01-06T09:02:11;5.68;;;2.70;;
28170;SDS011;15458;53.346;-1.688;2024-01-06T09:04:37;7.82;;;2.65;;
28170;SDS011;15458;53.346;-1.688;2024-01-06T09:07:03;10.98;;;2.58;;
28170;SDS011;15458;53.346;-1.688;2024-01-06T09:09:29;3.85;;;2.13;;
28170;SDS011;15458;53.346;-1.688;2024-01-06T09:11:55;4.90;;;2.05;;
28170;SDS011;15458;53.346;-1.688;2024-01-06T09:14:20;5.72;;;2.10;;
28170;SDS011;15458;53.346;-1.688;2024-01-06T09:16:46;6.55;;;2.65;;
28170;SDS011;15458;53.346;-1.688;2024-01-06T09:19:11;4.72;;;2.55;;
28170;SDS011;15458;53.346;-1.688;2024-01-06T09:21:37;5.47;;;2.17;;
28170;SDS011;15458;53.346;-1.688;2024-01-06T09:24:03;7.07;;;1.90;;
28170;SDS011;15458;53.346;-1.688;2024-01-06T09:26:34;8.18;;;2.38;;
28170;SDS011;15458;53.346;-1.688;2024-01-06T09:29:00;3.63;;;1.88;;
28170;SDS011;15458;53.346;-1.688;2024-01-06T09:31:30;7.53;;;2.30;;
28170;SDS011;15458;53.346;-1.688;2024-01-06T09:34:02;12.70;;;2.88;;
28170;SDS011;15458;53.346;-1.688;2024-01-06T09:36:32;7.30;;;2.28;;
28170;SDS011;15458;53.346;-1.688;2024-01-06T09:38:59;10.43;;;2.25;;
28170;SDS011;15458;53.346;-1.688;2024-01-06T09:41:25;4.57;;;2.47;;
28170;SDS011;15458;53.346;-1.688;2024-01-06T09:43:51;8.35;;;2.78;;
28170;SDS011;15458;53.346;-1.688;2024-01-06T09:46:25;7.65;;;3.75;;
28170;SDS011;15458;53.346;-1.688;2024-01-06T09:48:52;6.40;;;3.25;;
28170;SDS011;15458;53.346;-1.688;2024-01-06T09:51:20;10.02;;;4.05;;
28170;SDS011;15458;53.346;-1.688;2024-01-06T09:53:59;9.45;;;2.75;;
28170;SDS011;15458;53.346;-1.688;2024-01-06T09:56:28;6.90;;;1.80;;
28170;SDS011;15458;53.346;-1.688;2024-01-06T09:58:58;7.57;;;2.35;;
28170;SDS011;15458;53.346;-1.688;2024-01-06T10:01:27;7.63;;;3.00;;
28170;SDS011;15458;53.346;-1.688;2024-01-06T10:03:54;4.32;;;2.00;;
28170;SDS011;15458;53.346;-1.688;2024-01-06T10:06:26;3.35;;;1.88;;
28170;SDS011;15458;53.346;-1.688;2024-01-06T10:08:54;4.30;;;1.80;;
28170;SDS011;15458;53.346;-1.688;2024-01-06T10:11:22;5.72;;;1.42;;
28170;SDS011;15458;53.346;-1.688;2024-01-06T10:13:48;2.92;;;1.63;;
28170;SDS011;15458;53.346;-1.688;2024-01-06T10:16:17;4.72;;;1.77;;
28170;SDS011;15458;53.346;-1.688;2024-01-06T10:18:44;21.75;;;9.18;;
28170;SDS011;15458;53.346;-1.688;2024-01-06T10:21:26;14.02;;;6.47;;
28170;SDS011;15458;53.346;-1.688;2024-01-06T10:24:17;9.73;;;4.82;;
28170;SDS011;15458;53.346;-1.688;2024-01-06T10:26:46;11.05;;;4.30;;
28170;SDS011;15458;53.346;-1.688;2024-01-06T10:31:57;9.25;;;3.03;;
28170;SDS011;15458;53.346;-1.688;2024-01-06T10:34:46;6.13;;;2.10;;
28170;SDS011;15458;53.346;-1.688;2024-01-06T10:37:16;10.60;;;2.03;;
28170;SDS011;15458;53.346;-1.688;2024-01-06T10:39:50;6.35;;;1.38;;
28170;SDS011;15458;53.346;-1.688;2024-01-06T10:42:43;5.22;;;1.10;;
28170;SDS011;15458;53.346;-1.688;2024-01-06T10:48:05;6.97;;;0.98;;
28170;SDS011;15458;53.346;-1.688;2024-01-06T10:50:47;1.88;;;0.68;;
28170;SDS011;15458;53.346;-1.688;2024-01-06T10:53:17;6.10;;;0.93;;
28170;SDS011;15458;53.346;-1.688;2024-01-06T10:55:59;3.88;;;0.80;;
28170;SDS011;15458;53.346;-1.688;2024-01-06T10:58:32;1.73;;;0.93;;
28170;SDS011;15458;53.346;-1.688;2024-01-06T11:01:12;5.82;;;0.60;;
28170;SDS011;15458;53.346;-1.688;2024-01-06T11:03:41;2.08;;;0.93;;
28170;SDS011;15458;53.346;-1.688;2024-01-06T11:06:32;1.80;;;0.70;;
28170;SDS011;15458;53.346;-1.688;2024-01-06T11:09:13;4.30;;;0.70;;
28170;SDS011;15458;53.346;-1.688;2024-01-06T11:14:27;5.50;;;0.93;;
28170;SDS011;15458;53.346;-1.688;2024-01-06T11:17:09;7.68;;;1.10;;
28170;SDS011;15458;53.346;-1.688;2024-01-06T11:20:20;2.63;;;0.75;;
28170;SDS011;15458;53.346;-1.688;2024-01-06T11:22:52;6.78;;;1.00;;
28170;SDS011;15458;53.346;-1.688;2024-01-06T11:25:30;3.25;;;0.73;;
28170;SDS011;15458;53.346;-1.688;2024-01-06T11:31:45;5.85;;;0.50;;
28170;SDS011;15458;53.346;-1.688;2024-01-06T11:34:52;3.28;;;0.68;;
28170;SDS011;15458;53.346;-1.688;2024-01-06T11:40:47;4.75;;;0.75;;
28170;SDS011;15458;53.346;-1.688;2024-01-06T11:44:04;5.82;;;1.20;;
28170;SDS011;15458;53.346;-1.688;2024-01-06T11:46:52;7.93;;;0.85;;
28170;SDS011;15458;53.346;-1.688;2024-01-06T11:49:42;1.45;;;0.40;;
28170;SDS011;15458;53.346;-1.688;2024-01-06T11:52:32;5.70;;;0.82;;
28170;SDS011;15458;53.346;-1.688;2024-01-06T11:55:12;3.22;;;1.23;;
28170;SDS011;15458;53.346;-1.688;2024-01-06T11:58:10;5.75;;;0.90;;
28170;SDS011;15458;53.346;-1.688;2024-01-06T12:01:19;3.25;;;0.85;;
28170;SDS011;15458;53.346;-1.688;2024-01-06T12:04:19;4.88;;;0.80;;
28170;SDS011;15458;53.346;-1.688;2024-01-06T12:07:08;4.57;;;0.93;;
28170;SDS011;15458;53.346;-1.688;2024-01-06T12:15:53;3.38;;;0.82;;
28170;SDS011;15458;53.346;-1.688;2024-01-06T12:19:08;4.90;;;1.00;;
28170;SDS011;15458;53.346;-1.688;2024-01-06T12:21:34;10.02;;;0.90;;
28170;SDS011;15458;53.346;-1.688;2024-01-06T12:24:17;3.88;;;0.82;;
28170;SDS011;15458;53.346;-1.688;2024-01-06T12:26:54;6.88;;;0.85;;
28170;SDS011;15458;53.346;-1.688;2024-01-06T12:29:29;3.53;;;1.08;;
28170;SDS011;15458;53.346;-1.688;2024-01-06T12:34:59;4.10;;;0.80;;
28170;SDS011;15458;53.346;-1.688;2024-01-06T12:40:31;2.00;;;1.10;;
28170;SDS011;15458;53.346;-1.688;2024-01-06T12:43:17;2.78;;;0.68;;
28170;SDS011;15458;53.346;-1.688;2024-01-06T12:46:33;4.00;;;0.82;;
28170;SDS011;15458;53.346;-1.688;2024-01-06T12:53:10;4.82;;;0.75;;
28170;SDS011;15458;53.346;-1.688;2024-01-06T12:55:40;3.38;;;0.85;;
28170;SDS011;15458;53.346;-1.688;2024-01-06T12:58:06;3.22;;;0.70;;
28170;SDS011;15458;53.346;-1.688;2024-01-06T13:00:33;3.80;;;0.63;;
28170;SDS011;15458;53.346;-1.688;2024-01-06T13:02:59;6.78;;;0.70;;
28170;SDS011;15458;53.346;-1.688;2024-01-06T13:05:25;4.93;;;1.17;;
28170;SDS011;15458;53.346;-1.688;2024-01-06T13:07:50;4.97;;;0.80;;
28170;SDS011;15458;53.346;-1.688;2024-01-06T13:10:16;8.35;;;0.80;;
28170;SDS011;15458;53.346;-1.688;2024-01-06T13:12:42;5.20;;;0.80;;
28170;SDS011;15458;53.346;-1.688;2024-01-06T13:15:08;3.67;;;0.77;;
28170;SDS011;15458;53.346;-1.688;2024-01-06T13:17:37;6.40;;;0.90;;
28170;SDS011;15458;53.346;-1.688;2024-01-06T13:20:03;3.90;;;0.80;;
28170;SDS011;15458;53.346;-1.688;2024-01-06T13:22:30;4.07;;;0.68;;
28170;SDS011;15458;53.346;-1.688;2024-01-06T13:24:55;12.98;;;1.27;;
28170;SDS011;15458;53.346;-1.688;2024-01-06T13:27:21;3.92;;;0.93;;
28170;SDS011;15458;53.346;-1.688;2024-01-06T13:29:47;5.68;;;2.33;;
28170;SDS011;15458;53.346;-1.688;2024-01-06T13:32:14;4.78;;;1.10;;
28170;SDS011;15458;53.346;-1.688;2024-01-06T13:34:40;4.63;;;1.15;;
28170;SDS011;15458;53.346;-1.688;2024-01-06T13:37:07;4.65;;;1.13;;
28170;SDS011;15458;53.346;-1.688;2024-01-06T13:39:33;8.63;;;1.05;;
28170;SDS011;15458;53.346;-1.688;2024-01-06T13:41:59;5.13;;;1.05;;
28170;SDS011;15458;53.346;-1.688;2024-01-06T13:44:24;3.35;;;1.05;;
28170;SDS011;15458;53.346;-1.688;2024-01-06T13:46:54;5.57;;;1.10;;
28170;SDS011;15458;53.346;-1.688;2024-01-06T13:49:20;4.05;;;1.00;;
28170;SDS011;15458;53.346;-1.688;2024-01-06T13:51:46;3.95;;;0.70;;
28170;SDS011;15458;53.346;-1.688;2024-01-06T13:54:13;5.53;;;0.82;;
28170;SDS011;15458;53.346;-1.688;2024-01-06T13:56:39;4.55;;;0.80;;
28170;SDS011;15458;53.346;-1.688;2024-01-06T13:59:04;2.65;;;0.73;;
28170;SDS011;15458;53.346;-1.688;2024-01-06T14:01:30;5.13;;;0.90;;
28170;SDS011;15458;53.346;-1.688;2024-01-06T14:03:57;3.85;;;0.73;;
28170;SDS011;15458;53.346;-1.688;2024-01-06T14:06:31;2.22;;;0.73;;
28170;SDS011;15458;53.346;-1.688;2024-01-06T14:08:59;3.33;;;0.93;;
28170;SDS011;15458;53.346;-1.688;2024-01-06T14:11:25;5.07;;;1.25;;
28170;SDS011;15458;53.346;-1.688;2024-01-06T14:13:52;3.80;;;0.85;;
28170;SDS011;15458;53.346;-1.688;2024-01-06T14:16:18;3.10;;;1.05;;
28170;SDS011;15458;53.346;-1.688;2024-01-06T14:18:47;3.97;;;0.63;;
28170;SDS011;15458;53.346;-1.688;2024-01-06T14:21:13;5.70;;;1.02;;
28170;SDS011;15458;53.346;-1.688;2024-01-06T14:23:41;11.15;;;5.07;;
28170;SDS011;15458;53.346;-1.688;2024-01-06T14:26:07;6.57;;;1.92;;
28170;SDS011;15458;53.346;-1.688;2024-01-06T14:28:33;6.90;;;2.47;;
28170;SDS011;15458;53.346;-1.688;2024-01-06T14:30:59;10.55;;;2.97;;
28170;SDS011;15458;53.346;-1.688;2024-01-06T14:33:25;5.00;;;1.65;;
28170;SDS011;15458;53.346;-1.688;2024-01-06T14:35:52;5.95;;;1.67;;
28170;SDS011;15458;53.346;-1.688;2024-01-06T14:38:18;10.50;;;2.88;;
28170;SDS011;15458;53.346;-1.688;2024-01-06T14:40:44;10.73;;;3.03;;
28170;SDS011;15458;53.346;-1.688;2024-01-06T14:43:10;14.65;;;3.30;;
28170;SDS011;15458;53.346;-1.688;2024-01-06T14:45:36;14.68;;;3.97;;
28170;SDS011;15458;53.346;-1.688;2024-01-06T14:48:02;18.73;;;4.38;;
28170;SDS011;15458;53.346;-1.688;2024-01-06T14:50:27;8.93;;;3.20;;
28170;SDS011;15458;53.346;-1.688;2024-01-06T14:52:54;18.15;;;4.82;;
28170;SDS011;15458;53.346;-1.688;2024-01-06T14:55:20;12.00;;;3.25;;
28170;SDS011;15458;53.346;-1.688;2024-01-06T14:57:46;10.98;;;2.63;;
28170;SDS011;15458;53.346;-1.688;2024-01-06T15:00:12;9.90;;;1.88;;
28170;SDS011;15458;53.346;-1.688;2024-01-06T15:02:38;3.40;;;1.40;;
28170;SDS011;15458;53.346;-1.688;2024-01-06T15:05:10;10.77;;;4.82;;
28170;SDS011;15458;53.346;-1.688;2024-01-06T15:07:36;16.17;;;7.78;;
28170;SDS011;15458;53.346;-1.688;2024-01-06T15:10:02;4.75;;;2.10;;
28170;SDS011;15458;53.346;-1.688;2024-01-06T15:12:28;8.68;;;4.22;;
28170;SDS011;15458;53.346;-1.688;2024-01-06T15:14:54;5.57;;;2.10;;
28170;SDS011;15458;53.346;-1.688;2024-01-06T15:17:20;12.07;;;2.67;;